This is the latest recevied weather packets stored in our database for station/object KC1OEK-13. If no packets are shown the sender has not sent any weather packets the latest 1 day(s).
| Time | Temp. | Humidity | Pressure | Rain* | Wind** | Luminosity | Snow |
|---|---|---|---|---|---|---|---|
| 1778081627 | 19.44° C | 74% | 1011.1 hPa | 0 mm | - | 234 W/m² | - |
| 1778081324 | 18.89° C | 74% | 1011.2 hPa | 0 mm | - | 267 W/m² | - |
| 1778081021 | 18.89° C | 74% | 1011.1 hPa | 0 mm | - | 197 W/m² | - |
| 1778079810 | 19.44° C | 74% | 1010.9 hPa | 0 mm | - | 223 W/m² | - |
| 1778079203 | 18.89° C | 73% | 1010.9 hPa | 0 mm | - | 236 W/m² | - |
| 1778078597 | 18.89° C | 74% | 1011.1 hPa | 0 mm | - | 265 W/m² | - |
| 1778078296 | 18.89° C | 75% | 1011 hPa | 0 mm | - | 268 W/m² | - |
| 1778077388 | 18.89° C | 75% | 1011.3 hPa | 0 mm | - | 278 W/m² | - |
| 1778076784 | 18.89° C | 75% | 1011.3 hPa | 0 mm | - | 273 W/m² | - |
| 1778076178 | 18.89° C | 75% | 1011.4 hPa | 0 mm | - | 333 W/m² | - |
| 1778075571 | 18.33° C | 77% | 1011.1 hPa | 0 mm | - | 287 W/m² | - |
| 1778074662 | 18.33° C | 77% | 1011.4 hPa | 0 mm | - | 231 W/m² | - |
| 1778073146 | 18.33° C | 78% | 1011.1 hPa | 0 mm | - | 225 W/m² | - |
| 1778072843 | 17.78° C | 79% | 1011.3 hPa | 0 mm | - | 318 W/m² | - |
| 1778072540 | 17.78° C | 79% | 1011.3 hPa | 0 mm | - | 290 W/m² | - |
| 1778069819 | 16.67° C | 83% | 1011.9 hPa | 0 mm | - | 135 W/m² | - |
| 1778069515 | 16.67° C | 83% | 1011.7 hPa | 0 mm | - | 202 W/m² | - |
| 1778067400 | 15° C | 88% | 1011.6 hPa | 0 mm | - | 90 W/m² | - |
| 1778066490 | 15° C | 89% | 1011.9 hPa | 0 mm | - | 62 W/m² | - |
| 1778066188 | 14.44° C | 90% | 1011.7 hPa | 0 mm | - | 89 W/m² | - |
| 1778065280 | 13.89° C | 92% | 1011.8 hPa | 0 mm | - | 77 W/m² | - |
| 1778063766 | 13.33° C | 94% | 1011.6 hPa | 0 mm | - | 36 W/m² | - |
| 1778063161 | 12.78° C | 94% | 1011.7 hPa | 0 mm | - | 22 W/m² | - |
| 1778062858 | 12.78° C | 95% | 1011.8 hPa | 0 mm | - | 23 W/m² | - |
| 1778061950 | 12.78° C | 94% | 1011.7 hPa | 0 mm | - | 12 W/m² | - |
* Rain latest hour (hover to see other rain measurements)
** Current wind speed in m/s (hover to see current wind gust speed)